sensor_id;sensor_type;location;lat;lon;timestamp;pressure;altitude;pressure_sealevel;temperature;humidity
6851;BME280;3464;42.728;23.296;2024-01-25T00:02:05;95794.03;;;14.94;38.67
6851;BME280;3464;42.728;23.296;2024-01-25T00:04:32;95782.59;;;14.65;39.15
6851;BME280;3464;42.728;23.296;2024-01-25T00:06:59;95772.81;;;14.29;39.76
6851;BME280;3464;42.728;23.296;2024-01-25T00:09:26;95767.77;;;14.32;39.72
6851;BME280;3464;42.728;23.296;2024-01-25T00:11:53;95744.14;;;14.30;39.53
6851;BME280;3464;42.728;23.296;2024-01-25T00:14:19;95728.10;;;14.56;39.19
6851;BME280;3464;42.728;23.296;2024-01-25T00:16:46;95697.72;;;14.43;39.41
6851;BME280;3464;42.728;23.296;2024-01-25T00:19:12;95698.56;;;14.48;39.39
6851;BME280;3464;42.728;23.296;2024-01-25T00:21:42;95690.53;;;14.85;38.86
6851;BME280;3464;42.728;23.296;2024-01-25T00:24:08;95707.42;;;14.45;39.66
6851;BME280;3464;42.728;23.296;2024-01-25T00:26:35;95705.31;;;14.77;39.03
6851;BME280;3464;42.728;23.296;2024-01-25T00:29:02;95723.46;;;14.78;38.73
6851;BME280;3464;42.728;23.296;2024-01-25T00:31:28;95728.97;;;14.75;38.69
6851;BME280;3464;42.728;23.296;2024-01-25T00:33:55;95716.28;;;14.90;38.07
6851;BME280;3464;42.728;23.296;2024-01-25T00:36:22;95710.77;;;15.16;37.25
6851;BME280;3464;42.728;23.296;2024-01-25T00:38:49;95707.81;;;15.05;37.41
6851;BME280;3464;42.728;23.296;2024-01-25T00:41:17;95694.26;;;15.26;37.16
6851;BME280;3464;42.728;23.296;2024-01-25T00:43:43;95700.22;;;15.06;38.01
6851;BME280;3464;42.728;23.296;2024-01-25T00:46:10;95696.34;;;15.30;37.62
6851;BME280;3464;42.728;23.296;2024-01-25T00:48:39;95692.64;;;14.28;39.44
6851;BME280;3464;42.728;23.296;2024-01-25T00:51:07;95687.14;;;14.40;39.18
6851;BME280;3464;42.728;23.296;2024-01-25T00:53:34;95693.48;;;14.69;38.83
6851;BME280;3464;42.728;23.296;2024-01-25T00:56:02;95707.41;;;14.42;39.24
6851;BME280;3464;42.728;23.296;2024-01-25T00:58:28;95715.30;;;13.94;39.82
6851;BME280;3464;42.728;23.296;2024-01-25T01:00:55;95714.92;;;14.04;39.99
6851;BME280;3464;42.728;23.296;2024-01-25T01:03:22;95709.50;;;14.27;39.55
6851;BME280;3464;42.728;23.296;2024-01-25T01:05:49;95722.12;;;14.19;39.84
6851;BME280;3464;42.728;23.296;2024-01-25T01:08:16;95717.05;;;14.11;39.98
6851;BME280;3464;42.728;23.296;2024-01-25T01:10:42;95693.05;;;14.75;38.80
6851;BME280;3464;42.728;23.296;2024-01-25T01:13:09;95675.75;;;14.66;39.11
6851;BME280;3464;42.728;23.296;2024-01-25T01:15:35;95671.34;;;13.50;41.25
6851;BME280;3464;42.728;23.296;2024-01-25T01:18:02;95654.01;;;13.39;41.48
6851;BME280;3464;42.728;23.296;2024-01-25T01:20:30;95644.61;;;13.11;42.27
6851;BME280;3464;42.728;23.296;2024-01-25T01:22:58;95631.70;;;13.49;41.66
6851;BME280;3464;42.728;23.296;2024-01-25T01:25:24;95639.88;;;14.42;40.41
6851;BME280;3464;42.728;23.296;2024-01-25T01:27:51;95631.39;;;14.68;39.73
6851;BME280;3464;42.728;23.296;2024-01-25T01:30:17;95641.52;;;13.96;40.50
6851;BME280;3464;42.728;23.296;2024-01-25T01:32:44;95641.02;;;13.65;41.35
6851;BME280;3464;42.728;23.296;2024-01-25T01:35:10;95636.44;;;13.98;40.96
6851;BME280;3464;42.728;23.296;2024-01-25T01:37:37;95627.59;;;14.18;40.61
6851;BME280;3464;42.728;23.296;2024-01-25T01:40:04;95623.41;;;14.29;40.59
6851;BME280;3464;42.728;23.296;2024-01-25T01:42:31;95625.02;;;13.80;41.19
6851;BME280;3464;42.728;23.296;2024-01-25T01:44:58;95628.02;;;14.01;41.15
6851;BME280;3464;42.728;23.296;2024-01-25T01:47:24;95620.47;;;14.46;40.52
6851;BME280;3464;42.728;23.296;2024-01-25T01:49:51;95620.86;;;14.59;40.16
6851;BME280;3464;42.728;23.296;2024-01-25T01:52:17;95618.32;;;14.19;40.90
6851;BME280;3464;42.728;23.296;2024-01-25T01:54:44;95621.62;;;13.73;41.52
6851;BME280;3464;42.728;23.296;2024-01-25T01:57:10;95617.83;;;13.73;41.65
6851;BME280;3464;42.728;23.296;2024-01-25T01:59:37;95618.70;;;13.84;41.29
6851;BME280;3464;42.728;23.296;2024-01-25T02:02:03;95612.38;;;13.81;41.41
6851;BME280;3464;42.728;23.296;2024-01-25T02:04:30;95602.27;;;13.99;41.00
6851;BME280;3464;42.728;23.296;2024-01-25T02:06:57;95594.20;;;14.89;39.91
6851;BME280;3464;42.728;23.296;2024-01-25T02:09:23;95583.47;;;15.30;38.92
6851;BME280;3464;42.728;23.296;2024-01-25T02:11:58;95593.17;;;15.33;38.53
6851;BME280;3464;42.728;23.296;2024-01-25T02:14:17;95597.78;;;15.53;38.19
6851;BME280;3464;42.728;23.296;2024-01-25T02:16:44;95606.74;;;15.26;38.76
6851;BME280;3464;42.728;23.296;2024-01-25T02:19:10;95605.02;;;15.40;38.78
6851;BME280;3464;42.728;23.296;2024-01-25T02:21:37;95604.97;;;15.50;38.50
6851;BME280;3464;42.728;23.296;2024-01-25T02:24:05;95605.50;;;15.17;38.72
6851;BME280;3464;42.728;23.296;2024-01-25T02:26:32;95601.16;;;15.55;38.19
6851;BME280;3464;42.728;23.296;2024-01-25T02:28:59;95602.41;;;15.55;38.17
6851;BME280;3464;42.728;23.296;2024-01-25T02:31:25;95593.16;;;15.46;38.25
6851;BME280;3464;42.728;23.296;2024-01-25T02:33:52;95599.62;;;15.05;38.92
6851;BME280;3464;42.728;23.296;2024-01-25T02:36:18;95592.55;;;14.64;39.68
6851;BME280;3464;42.728;23.296;2024-01-25T02:38:45;95601.47;;;14.40;40.12
6851;BME280;3464;42.728;23.296;2024-01-25T02:41:12;95600.57;;;13.92;41.28
6851;BME280;3464;42.728;23.296;2024-01-25T02:43:39;95592.68;;;12.90;42.65
6851;BME280;3464;42.728;23.296;2024-01-25T02:46:05;95576.12;;;13.94;41.38
6851;BME280;3464;42.728;23.296;2024-01-25T02:48:32;95576.14;;;14.40;40.40
6851;BME280;3464;42.728;23.296;2024-01-25T02:50:58;95579.48;;;13.66;41.41
6851;BME280;3464;42.728;23.296;2024-01-25T02:53:25;95568.49;;;14.58;40.27
6851;BME280;3464;42.728;23.296;2024-01-25T02:55:51;95565.50;;;14.78;40.18
6851;BME280;3464;42.728;23.296;2024-01-25T02:58:18;95574.87;;;14.18;40.81
6851;BME280;3464;42.728;23.296;2024-01-25T03:00:44;95576.53;;;14.17;41.01
6851;BME280;3464;42.728;23.296;2024-01-25T03:03:11;95579.54;;;14.27;41.42
6851;BME280;3464;42.728;23.296;2024-01-25T03:05:37;95574.42;;;14.14;41.89
6851;BME280;3464;42.728;23.296;2024-01-25T03:08:04;95583.22;;;14.86;40.91
6851;BME280;3464;42.728;23.296;2024-01-25T03:10:31;95580.15;;;15.15;40.04
6851;BME280;3464;42.728;23.296;2024-01-25T03:12:57;95585.61;;;16.04;38.77
6851;BME280;3464;42.728;23.296;2024-01-25T03:15:24;95575.72;;;16.20;38.62
6851;BME280;3464;42.728;23.296;2024-01-25T03:17:51;95565.52;;;16.25;38.63
6851;BME280;3464;42.728;23.296;2024-01-25T03:20:18;95561.30;;;15.68;39.86
6851;BME280;3464;42.728;23.296;2024-01-25T03:22:45;95555.69;;;15.88;39.61
6851;BME280;3464;42.728;23.296;2024-01-25T03:25:12;95574.81;;;15.71;40.46
6851;BME280;3464;42.728;23.296;2024-01-25T03:27:38;95572.37;;;15.56;39.86
6851;BME280;3464;42.728;23.296;2024-01-25T03:30:05;95563.59;;;15.31;40.72
6851;BME280;3464;42.728;23.296;2024-01-25T03:32:33;95575.79;;;16.14;39.82
6851;BME280;3464;42.728;23.296;2024-01-25T03:35:01;95560.74;;;16.40;39.34
6851;BME280;3464;42.728;23.296;2024-01-25T03:37:27;95572.40;;;15.52;40.30
6851;BME280;3464;42.728;23.296;2024-01-25T03:39:54;95556.66;;;15.68;40.21
6851;BME280;3464;42.728;23.296;2024-01-25T03:42:20;95550.34;;;15.66;40.31
6851;BME280;3464;42.728;23.296;2024-01-25T03:44:47;95545.12;;;16.36;38.99
6851;BME280;3464;42.728;23.296;2024-01-25T03:47:13;95556.27;;;15.63;40.54
6851;BME280;3464;42.728;23.296;2024-01-25T03:49:40;95555.83;;;15.63;40.50
6851;BME280;3464;42.728;23.296;2024-01-25T03:52:06;95543.75;;;15.98;40.11
6851;BME280;3464;42.728;23.296;2024-01-25T03:54:33;95532.59;;;16.15;39.75
6851;BME280;3464;42.728;23.296;2024-01-25T03:57:00;95528.56;;;15.94;39.84
6851;BME280;3464;42.728;23.296;2024-01-25T03:59:26;95547.42;;;15.58;40.75
6851;BME280;3464;42.728;23.296;2024-01-25T04:02:09;95535.89;;;15.74;40.56
6851;BME280;3464;42.728;23.296;2024-01-25T04:04:59;95546.59;;;15.53;40.66
6851;BME280;3464;42.728;23.296;2024-01-25T04:07:35;95528.48;;;16.00;39.93
6851;BME280;3464;42.728;23.296;2024-01-25T04:10:02;95524.64;;;16.04;39.76
6851;BME280;3464;42.728;23.296;2024-01-25T04:12:28;95525.67;;;16.31;39.38
6851;BME280;3464;42.728;23.296;2024-01-25T04:14:55;95520.59;;;15.83;40.29
6851;BME280;3464;42.728;23.296;2024-01-25T04:17:22;95528.23;;;15.02;41.35
6851;BME280;3464;42.728;23.296;2024-01-25T04:19:48;95523.67;;;14.87;41.88
6851;BME280;3464;42.728;23.296;2024-01-25T04:22:16;95532.52;;;14.90;41.75
6851;BME280;3464;42.728;23.296;2024-01-25T04:24:42;95522.27;;;15.14;41.52
6851;BME280;3464;42.728;23.296;2024-01-25T04:27:10;95532.98;;;14.76;41.96
6851;BME280;3464;42.728;23.296;2024-01-25T04:29:39;95530.05;;;14.69;42.08
6851;BME280;3464;42.728;23.296;2024-01-25T04:32:06;95527.95;;;14.66;41.95
6851;BME280;3464;42.728;23.296;2024-01-25T04:34:32;95528.85;;;14.39;42.43
6851;BME280;3464;42.728;23.296;2024-01-25T04:36:59;95531.41;;;14.16;42.95
6851;BME280;3464;42.728;23.296;2024-01-25T04:39:25;95537.66;;;14.65;42.34
6851;BME280;3464;42.728;23.296;2024-01-25T04:41:52;95536.83;;;14.63;42.22
6851;BME280;3464;42.728;23.296;2024-01-25T04:44:18;95552.51;;;14.00;43.13
6851;BME280;3464;42.728;23.296;2024-01-25T04:46:45;95549.08;;;14.58;42.26
6851;BME280;3464;42.728;23.296;2024-01-25T04:49:12;95550.33;;;14.67;42.10
6851;BME280;3464;42.728;23.296;2024-01-25T04:51:38;95568.53;;;14.37;42.58
6851;BME280;3464;42.728;23.296;2024-01-25T04:54:05;95560.92;;;14.52;42.36
6851;BME280;3464;42.728;23.296;2024-01-25T04:56:31;95556.58;;;14.97;41.58
6851;BME280;3464;42.728;23.296;2024-01-25T04:58:58;95562.50;;;14.89;41.76
6851;BME280;3464;42.728;23.296;2024-01-25T05:01:24;95570.94;;;14.91;41.56
6851;BME280;3464;42.728;23.296;2024-01-25T05:03:51;95588.36;;;14.48;42.59
6851;BME280;3464;42.728;23.296;2024-01-25T05:06:18;95570.58;;;14.76;42.11
6851;BME280;3464;42.728;23.296;2024-01-25T05:08:44;95574.23;;;15.17;41.41
6851;BME280;3464;42.728;23.296;2024-01-25T05:11:11;95578.59;;;14.79;42.11
6851;BME280;3464;42.728;23.296;2024-01-25T05:13:38;95589.53;;;14.97;41.77
6851;BME280;3464;42.728;23.296;2024-01-25T05:16:07;95600.39;;;15.38;40.95
6851;BME280;3464;42.728;23.296;2024-01-25T05:18:34;95605.00;;;15.41;40.88
6851;BME280;3464;42.728;23.296;2024-01-25T05:21:01;95614.45;;;14.93;41.50
6851;BME280;3464;42.728;23.296;2024-01-25T05:23:27;95617.75;;;15.23;41.01
6851;BME280;3464;42.728;23.296;2024-01-25T05:25:54;95611.92;;;14.99;41.38
6851;BME280;3464;42.728;23.296;2024-01-25T05:28:20;95609.91;;;14.45;42.21
6851;BME280;3464;42.728;23.296;2024-01-25T05:30:47;95609.47;;;14.47;42.43
6851;BME280;3464;42.728;23.296;2024-01-25T05:33:14;95623.41;;;14.29;42.70
6851;BME280;3464;42.728;23.296;2024-01-25T05:35:40;95609.91;;;14.38;42.86
6851;BME280;3464;42.728;23.296;2024-01-25T05:38:07;95620.84;;;13.94;43.31
6851;BME280;3464;42.728;23.296;2024-01-25T05:40:33;95622.16;;;14.25;43.09
6851;BME280;3464;42.728;23.296;2024-01-25T05:43:00;95629.69;;;14.12;43.34
6851;BME280;3464;42.728;23.296;2024-01-25T05:45:26;95634.33;;;13.94;43.39
6851;BME280;3464;42.728;23.296;2024-01-25T05:47:53;95633.50;;;14.05;43.12
6851;BME280;3464;42.728;23.296;2024-01-25T05:50:19;95639.83;;;14.13;43.36
6851;BME280;3464;42.728;23.296;2024-01-25T05:52:46;95639.45;;;14.40;42.75
6851;BME280;3464;42.728;23.296;2024-01-25T05:55:13;95626.33;;;14.82;42.30
6851;BME280;3464;42.728;23.296;2024-01-25T05:57:39;95631.01;;;14.30;43.22
6851;BME280;3464;42.728;23.296;2024-01-25T06:00:07;95628.90;;;14.60;42.69
6851;BME280;3464;42.728;23.296;2024-01-25T06:02:36;95634.34;;;14.07;43.58
6851;BME280;3464;42.728;23.296;2024-01-25T06:05:03;95629.69;;;13.96;43.73
6851;BME280;3464;42.728;23.296;2024-01-25T06:07:30;95631.02;;;14.32;43.26
6851;BME280;3464;42.728;23.296;2024-01-25T06:09:56;95638.59;;;14.52;42.79
6851;BME280;3464;42.728;23.296;2024-01-25T06:12:23;95630.97;;;14.20;43.11
6851;BME280;3464;42.728;23.296;2024-01-25T06:14:50;95634.34;;;14.88;42.11
6851;BME280;3464;42.728;23.296;2024-01-25T06:17:16;95651.70;;;14.51;42.94
6851;BME280;3464;42.728;23.296;2024-01-25T06:19:43;95658.88;;;14.25;42.76
6851;BME280;3464;42.728;23.296;2024-01-25T06:22:09;95650.36;;;14.05;43.22
6851;BME280;3464;42.728;23.296;2024-01-25T06:24:37;95654.13;;;13.86;43.92
6851;BME280;3464;42.728;23.296;2024-01-25T06:27:04;95649.16;;;14.30;43.12
6851;BME280;3464;42.728;23.296;2024-01-25T06:29:34;95651.69;;;14.69;42.23
6851;BME280;3464;42.728;23.296;2024-01-25T06:32:01;95663.45;;;14.00;43.54
6851;BME280;3464;42.728;23.296;2024-01-25T06:34:29;95664.80;;;14.50;42.73
6851;BME280;3464;42.728;23.296;2024-01-25T06:36:57;95667.64;;;13.95;43.69
6851;BME280;3464;42.728;23.296;2024-01-25T06:39:23;95661.75;;;14.00;43.77
6851;BME280;3464;42.728;23.296;2024-01-25T06:41:50;95645.35;;;14.49;43.22
6851;BME280;3464;42.728;23.296;2024-01-25T06:44:16;95652.12;;;14.43;42.99
6851;BME280;3464;42.728;23.296;2024-01-25T06:46:43;95652.12;;;14.32;43.31
6851;BME280;3464;42.728;23.296;2024-01-25T06:49:09;95657.56;;;14.83;42.60
6851;BME280;3464;42.728;23.296;2024-01-25T06:51:36;95669.41;;;14.65;42.81
6851;BME280;3464;42.728;23.296;2024-01-25T06:54:03;95658.77;;;15.16;41.97
6851;BME280;3464;42.728;23.296;2024-01-25T06:56:29;95662.84;;;15.63;41.37
6851;BME280;3464;42.728;23.296;2024-01-25T06:58:56;95673.24;;;15.98;40.93
6851;BME280;3464;42.728;23.296;2024-01-25T07:01:22;95663.23;;;15.73;40.67
6851;BME280;3464;42.728;23.296;2024-01-25T07:03:49;95656.58;;;15.36;41.39
6851;BME280;3464;42.728;23.296;2024-01-25T07:06:17;95643.41;;;15.59;41.01
6851;BME280;3464;42.728;23.296;2024-01-25T07:08:44;95650.36;;;15.01;41.93
6851;BME280;3464;42.728;23.296;2024-01-25T07:11:11;95643.53;;;15.26;41.53
6851;BME280;3464;42.728;23.296;2024-01-25T07:13:38;95632.96;;;15.21;41.20
6851;BME280;3464;42.728;23.296;2024-01-25T07:16:05;95625.34;;;15.26;41.49
6851;BME280;3464;42.728;23.296;2024-01-25T07:18:31;95615.20;;;15.26;41.56
6851;BME280;3464;42.728;23.296;2024-01-25T07:20:58;95618.45;;;15.57;41.28
6851;BME280;3464;42.728;23.296;2024-01-25T07:23:24;95622.57;;;15.82;40.93
6851;BME280;3464;42.728;23.296;2024-01-25T07:25:51;95630.73;;;15.56;41.21
6851;BME280;3464;42.728;23.296;2024-01-25T07:28:18;95628.97;;;15.73;40.76
6851;BME280;3464;42.728;23.296;2024-01-25T07:30:46;95630.98;;;16.50;39.87
6851;BME280;3464;42.728;23.296;2024-01-25T07:33:12;95630.05;;;16.04;39.75
6851;BME280;3464;42.728;23.296;2024-01-25T07:35:39;95630.54;;;15.92;40.07
6851;BME280;3464;42.728;23.296;2024-01-25T07:38:06;95620.07;;;16.86;38.87
6851;BME280;3464;42.728;23.296;2024-01-25T07:40:32;95624.73;;;16.34;39.21
6851;BME280;3464;42.728;23.296;2024-01-25T07:42:59;95615.69;;;16.57;38.92
6851;BME280;3464;42.728;23.296;2024-01-25T07:45:25;95628.69;;;17.12;38.55
6851;BME280;3464;42.728;23.296;2024-01-25T07:47:52;95642.67;;;17.12;38.53
6851;BME280;3464;42.728;23.296;2024-01-25T07:50:18;95649.80;;;17.59;37.58
6851;BME280;3464;42.728;23.296;2024-01-25T07:52:45;95655.31;;;17.59;37.76
6851;BME280;3464;42.728;23.296;2024-01-25T07:55:11;95655.94;;;17.43;37.87
6851;BME280;3464;42.728;23.296;2024-01-25T07:57:38;95657.89;;;17.55;37.92
6851;BME280;3464;42.728;23.296;2024-01-25T08:00:05;95654.21;;;17.46;37.89
6851;BME280;3464;42.728;23.296;2024-01-25T08:02:32;95662.48;;;18.25;36.97
6851;BME280;3464;42.728;23.296;2024-01-25T08:04:58;95662.39;;;18.02;37.09
6851;BME280;3464;42.728;23.296;2024-01-25T08:07:26;95658.10;;;17.35;37.98
6851;BME280;3464;42.728;23.296;2024-01-25T08:09:52;95666.58;;;17.35;37.76
6851;BME280;3464;42.728;23.296;2024-01-25T08:12:19;95663.26;;;17.67;37.30
6851;BME280;3464;42.728;23.296;2024-01-25T08:14:45;95661.41;;;17.45;37.81
6851;BME280;3464;42.728;23.296;2024-01-25T08:17:12;95668.62;;;17.79;37.17
6851;BME280;3464;42.728;23.296;2024-01-25T08:19:39;95662.34;;;18.34;36.39
6851;BME280;3464;42.728;23.296;2024-01-25T08:22:05;95662.58;;;17.88;36.91
6851;BME280;3464;42.728;23.296;2024-01-25T08:24:32;95657.28;;;18.30;36.37
6851;BME280;3464;42.728;23.296;2024-01-25T08:26:58;95663.53;;;18.67;35.60
6851;BME280;3464;42.728;23.296;2024-01-25T08:29:25;95656.86;;;18.60;35.89
6851;BME280;3464;42.728;23.296;2024-01-25T08:31:52;95656.03;;;18.59;35.70
6851;BME280;3464;42.728;23.296;2024-01-25T08:34:19;95659.08;;;18.55;35.66
6851;BME280;3464;42.728;23.296;2024-01-25T08:36:45;95655.20;;;18.27;35.85
6851;BME280;3464;42.728;23.296;2024-01-25T08:39:12;95658.80;;;18.14;36.44
6851;BME280;3464;42.728;23.296;2024-01-25T08:41:41;95657.02;;;17.59;36.80
6851;BME280;3464;42.728;23.296;2024-01-25T08:44:06;95665.26;;;18.08;36.13
6851;BME280;3464;42.728;23.296;2024-01-25T08:46:32;95670.81;;;18.65;35.48
6851;BME280;3464;42.728;23.296;2024-01-25T08:48:59;95667.66;;;19.24;34.63
6851;BME280;3464;42.728;23.296;2024-01-25T08:51:26;95661.11;;;19.33;34.44
6851;BME280;3464;42.728;23.296;2024-01-25T08:53:52;95663.92;;;18.14;36.05
6851;BME280;3464;42.728;23.296;2024-01-25T08:56:19;95665.54;;;17.88;36.42
6851;BME280;3464;42.728;23.296;2024-01-25T08:58:45;95662.59;;;17.87;36.35
6851;BME280;3464;42.728;23.296;2024-01-25T09:01:12;95663.56;;;18.09;35.97
6851;BME280;3464;42.728;23.296;2024-01-25T09:03:38;95663.17;;;18.06;36.06
6851;BME280;3464;42.728;23.296;2024-01-25T09:06:06;95672.22;;;17.23;37.05
6851;BME280;3464;42.728;23.296;2024-01-25T09:08:32;95679.81;;;17.28;37.31
6851;BME280;3464;42.728;23.296;2024-01-25T09:10:59;95678.84;;;17.43;36.94
6851;BME280;3464;42.728;23.296;2024-01-25T09:13:25;95677.91;;;17.84;36.48
6851;BME280;3464;42.728;23.296;2024-01-25T09:15:52;95670.67;;;18.47;35.77
6851;BME280;3464;42.728;23.296;2024-01-25T09:18:19;95665.62;;;18.44;35.36
6851;BME280;3464;42.728;23.296;2024-01-25T09:20:47;95681.14;;;19.07;35.03
6851;BME280;3464;42.728;23.296;2024-01-25T09:23:14;95685.48;;;19.27;34.76
6851;BME280;3464;42.728;23.296;2024-01-25T09:25:41;95679.97;;;19.70;34.04
6851;BME280;3464;42.728;23.296;2024-01-25T09:28:07;95668.64;;;20.02;33.54
6851;BME280;3464;42.728;23.296;2024-01-25T09:30:34;95667.34;;;19.62;34.13
6851;BME280;3464;42.728;23.296;2024-01-25T09:33:01;95666.16;;;19.36;34.42
6851;BME280;3464;42.728;23.296;2024-01-25T09:35:27;95667.66;;;20.09;33.57
6851;BME280;3464;42.728;23.296;2024-01-25T09:37:54;95662.80;;;19.97;33.61
6851;BME280;3464;42.728;23.296;2024-01-25T09:40:21;95657.30;;;19.54;34.23
6851;BME280;3464;42.728;23.296;2024-01-25T09:42:47;95647.24;;;20.07;33.68
6851;BME280;3464;42.728;23.296;2024-01-25T09:45:16;95648.28;;;19.78;33.92
6851;BME280;3464;42.728;23.296;2024-01-25T09:47:43;95648.79;;;19.09;34.70
6851;BME280;3464;42.728;23.296;2024-01-25T09:50:10;95631.46;;;19.48;34.42
6851;BME280;3464;42.728;23.296;2024-01-25T09:52:37;95629.52;;;19.39;34.55
6851;BME280;3464;42.728;23.296;2024-01-25T09:55:04;95631.41;;;19.05;34.72
6851;BME280;3464;42.728;23.296;2024-01-25T09:57:30;95639.41;;;18.61;35.15
6851;BME280;3464;42.728;23.296;2024-01-25T09:59:57;95629.88;;;18.97;35.02
6851;BME280;3464;42.728;23.296;2024-01-25T10:02:23;95629.53;;;18.43;35.58
6851;BME280;3464;42.728;23.296;2024-01-25T10:04:50;95620.83;;;18.79;34.95
6851;BME280;3464;42.728;23.296;2024-01-25T10:07:37;95599.99;;;19.26;34.70
6851;BME280;3464;42.728;23.296;2024-01-25T10:10:05;95609.09;;;18.70;34.99
6851;BME280;3464;42.728;23.296;2024-01-25T10:12:31;95590.99;;;19.71;34.05
6851;BME280;3464;42.728;23.296;2024-01-25T10:14:58;95586.77;;;20.43;33.27
6851;BME280;3464;42.728;23.296;2024-01-25T10:17:24;95588.86;;;19.88;33.23
6851;BME280;3464;42.728;23.296;2024-01-25T10:19:51;95587.39;;;19.97;33.28
6851;BME280;3464;42.728;23.296;2024-01-25T10:22:18;95586.80;;;20.42;33.25
6851;BME280;3464;42.728;23.296;2024-01-25T10:24:44;95596.45;;;19.54;34.07
6851;BME280;3464;42.728;23.296;2024-01-25T10:27:11;95594.66;;;18.92;34.98
6851;BME280;3464;42.728;23.296;2024-01-25T10:29:37;95598.65;;;20.09;34.02
6851;BME280;3464;42.728;23.296;2024-01-25T10:32:04;95593.22;;;19.45;34.63
6851;BME280;3464;42.728;23.296;2024-01-25T10:34:32;95596.14;;;20.26;33.78
6851;BME280;3464;42.728;23.296;2024-01-25T10:36:59;95592.95;;;19.96;34.18
6851;BME280;3464;42.728;23.296;2024-01-25T10:39:26;95592.16;;;20.50;33.74
6851;BME280;3464;42.728;23.296;2024-01-25T10:41:53;95593.55;;;19.71;34.54
6851;BME280;3464;42.728;23.296;2024-01-25T10:44:19;95587.92;;;20.82;33.51
6851;BME280;3464;42.728;23.296;2024-01-25T10:46:47;95577.21;;;20.33;33.89
6851;BME280;3464;42.728;23.296;2024-01-25T10:49:14;95576.44;;;20.30;34.20
6851;BME280;3464;42.728;23.296;2024-01-25T10:51:41;95565.95;;;20.23;34.33
6851;BME280;3464;42.728;23.296;2024-01-25T10:54:08;95560.34;;;20.43;33.92
6851;BME280;3464;42.728;23.296;2024-01-25T10:56:35;95559.28;;;21.01;33.45
6851;BME280;3464;42.728;23.296;2024-01-25T10:59:01;95556.33;;;21.15;33.07
6851;BME280;3464;42.728;23.296;2024-01-25T11:01:28;95563.48;;;21.03;33.29
6851;BME280;3464;42.728;23.296;2024-01-25T11:03:55;95553.95;;;19.71;34.30
6851;BME280;3464;42.728;23.296;2024-01-25T11:06:21;95547.83;;;18.73;35.30
6851;BME280;3464;42.728;23.296;2024-01-25T11:08:48;95546.95;;;18.96;35.33
6851;BME280;3464;42.728;23.296;2024-01-25T11:11:15;95530.41;;;19.16;34.84
6851;BME280;3464;42.728;23.296;2024-01-25T11:13:42;95523.48;;;19.81;34.17
6851;BME280;3464;42.728;23.296;2024-01-25T11:16:12;95530.17;;;19.48;33.99
6851;BME280;3464;42.728;23.296;2024-01-25T11:18:47;95517.81;;;18.86;34.58
6851;BME280;3464;42.728;23.296;2024-01-25T11:21:04;95511.23;;;18.97;34.54
6851;BME280;3464;42.728;23.296;2024-01-25T11:23:33;95501.55;;;19.14;34.42
6851;BME280;3464;42.728;23.296;2024-01-25T11:25:59;95507.76;;;18.79;34.70
6851;BME280;3464;42.728;23.296;2024-01-25T11:28:26;95506.19;;;18.49;34.86
6851;BME280;3464;42.728;23.296;2024-01-25T11:30:52;95510.47;;;18.49;34.98
6851;BME280;3464;42.728;23.296;2024-01-25T11:33:19;95499.65;;;18.58;34.65
6851;BME280;3464;42.728;23.296;2024-01-25T11:35:54;95492.76;;;18.41;35.02
6851;BME280;3464;42.728;23.296;2024-01-25T11:38:21;95506.47;;;17.52;35.69
6851;BME280;3464;42.728;23.296;2024-01-25T11:40:47;95521.44;;;17.46;35.72
6851;BME280;3464;42.728;23.296;2024-01-25T11:43:14;95508.72;;;18.00;35.28
6851;BME280;3464;42.728;23.296;2024-01-25T11:45:40;95511.72;;;17.99;35.43
6851;BME280;3464;42.728;23.296;2024-01-25T11:48:07;95514.00;;;17.88;35.39
6851;BME280;3464;42.728;23.296;2024-01-25T11:50:33;95525.81;;;17.32;36.59
6851;BME280;3464;42.728;23.296;2024-01-25T11:53:00;95514.20;;;17.47;36.24
6851;BME280;3464;42.728;23.296;2024-01-25T11:55:26;95514.16;;;17.77;36.06
6851;BME280;3464;42.728;23.296;2024-01-25T11:57:53;95499.14;;;17.62;36.27
6851;BME280;3464;42.728;23.296;2024-01-25T12:00:20;95503.47;;;18.33;35.50
6851;BME280;3464;42.728;23.296;2024-01-25T12:02:46;95508.64;;;18.29;35.21
6851;BME280;3464;42.728;23.296;2024-01-25T12:05:13;95517.49;;;17.82;35.94
6851;BME280;3464;42.728;23.296;2024-01-25T12:07:39;95505.57;;;18.35;35.56
6851;BME280;3464;42.728;23.296;2024-01-25T12:10:07;95507.06;;;17.70;36.23
6851;BME280;3464;42.728;23.296;2024-01-25T12:12:34;95502.94;;;17.64;36.29
6851;BME280;3464;42.728;23.296;2024-01-25T12:15:00;95488.69;;;17.52;36.67
6851;BME280;3464;42.728;23.296;2024-01-25T12:17:27;95487.06;;;17.14;37.26
6851;BME280;3464;42.728;23.296;2024-01-25T12:19:56;95478.06;;;17.79;36.75
6851;BME280;3464;42.728;23.296;2024-01-25T12:22:22;95482.86;;;17.10;37.38
6851;BME280;3464;42.728;23.296;2024-01-25T12:24:52;95477.03;;;18.41;35.85
6851;BME280;3464;42.728;23.296;2024-01-25T12:27:17;95482.25;;;18.57;35.42
6851;BME280;3464;42.728;23.296;2024-01-25T12:29:43;95477.63;;;18.76;35.17
6851;BME280;3464;42.728;23.296;2024-01-25T12:32:10;95483.38;;;19.07;34.46
6851;BME280;3464;42.728;23.296;2024-01-25T12:34:37;95477.92;;;18.61;35.06
6851;BME280;3464;42.728;23.296;2024-01-25T12:37:05;95471.18;;;18.59;35.31
6851;BME280;3464;42.728;23.296;2024-01-25T12:39:32;95455.89;;;18.99;34.95
6851;BME280;3464;42.728;23.296;2024-01-25T12:41:58;95444.92;;;19.16;34.63
6851;BME280;3464;42.728;23.296;2024-01-25T12:44:25;95435.69;;;19.10;34.62
6851;BME280;3464;42.728;23.296;2024-01-25T12:46:51;95439.01;;;19.52;33.90
6851;BME280;3464;42.728;23.296;2024-01-25T12:49:18;95425.63;;;19.43;34.13
6851;BME280;3464;42.728;23.296;2024-01-25T12:51:45;95411.80;;;19.68;33.83
6851;BME280;3464;42.728;23.296;2024-01-25T12:54:11;95415.75;;;18.88;34.72
6851;BME280;3464;42.728;23.296;2024-01-25T12:56:38;95405.37;;;19.35;33.85
6851;BME280;3464;42.728;23.296;2024-01-25T12:59:05;95396.24;;;20.11;32.88
6851;BME280;3464;42.728;23.296;2024-01-25T13:01:32;95396.77;;;19.39;33.80
6851;BME280;3464;42.728;23.296;2024-01-25T13:03:59;95403.11;;;19.41;33.81
6851;BME280;3464;42.728;23.296;2024-01-25T13:06:26;95403.14;;;19.00;33.70
6851;BME280;3464;42.728;23.296;2024-01-25T13:08:52;95402.88;;;19.51;33.47